Time;durP1;ratioP1;P1;durP2;ratioP2;P2;SDS_P1;SDS_P2;PMS_P1;PMS_P2;Temp;Humidity;BMP_temperature;BMP_pressure;BME280_temperature;BME280_humidity;BME280_pressure;Samples;Min_cycle;Max_cycle;Signal;HPM_P1;HPM_P2
2020/12/22 00:01:06;;;;;;;9.93;6.63;;;;;;;14.19;61.92;100337.28;5033909;28;20051;-67
2020/12/22 00:03:31;;;;;;;9.70;5.97;;;;;;;13.85;63.55;100321.06;5033264;28;20068;-67
2020/12/22 00:05:57;;;;;;;14.93;6.70;;;;;;;14.29;62.18;100302.28;5033103;28;20245;-67
2020/12/22 00:08:22;;;;;;;10.00;5.60;;;;;;;13.99;62.51;100309.38;5036650;28;20040;-66
2020/12/22 00:10:48;;;;;;;11.57;5.93;;;;;;;13.87;63.49;100315.84;5033460;28;20532;-67
2020/12/22 00:13:13;;;;;;;8.52;5.05;;;;;;;14.19;62.80;100306.91;5032391;28;20040;-66
2020/12/22 00:15:38;;;;;;;6.75;5.05;;;;;;;14.52;61.60;100304.03;5035568;28;20026;-67
2020/12/22 00:18:04;;;;;;;8.75;5.75;;;;;;;14.33;62.13;100304.69;5032693;28;20095;-66
2020/12/22 00:20:29;;;;;;;9.95;4.95;;;;;;;14.38;62.19;100308.88;5038727;28;20104;-67
2020/12/22 00:22:55;;;;;;;10.68;6.15;;;;;;;13.96;63.46;100301.69;5032058;28;20037;-66
2020/12/22 00:25:20;;;;;;;9.57;5.68;;;;;;;14.66;61.38;100296.59;5036462;28;20129;-68
2020/12/22 00:27:46;;;;;;;5.95;4.20;;;;;;;13.69;64.55;100304.31;5032356;28;20080;-66
2020/12/22 00:30:11;;;;;;;9.40;4.75;;;;;;;14.33;62.54;100299.50;5032770;28;20112;-66
2020/12/22 00:32:37;;;;;;;10.10;5.50;;;;;;;14.12;63.53;100295.88;5036618;28;20402;-67
2020/12/22 00:35:04;;;;;;;6.35;4.53;;;;;;;14.46;62.01;100278.25;5019361;28;20030;-67
2020/12/22 00:37:29;;;;;;;8.63;5.55;;;;;;;14.23;63.27;100277.31;5037443;28;20437;-67
2020/12/22 00:39:54;;;;;;;6.05;4.28;;;;;;;14.53;61.96;100282.31;5037505;28;20044;-67
2020/12/22 00:42:20;;;;;;;6.43;4.38;;;;;;;14.54;62.32;100271.03;5035355;28;20056;-67
2020/12/22 00:44:45;;;;;;;7.65;4.50;;;;;;;14.78;61.73;100265.81;5032833;28;20036;-66
2020/12/22 00:47:11;;;;;;;6.22;3.53;;;;;;;14.76;61.52;100257.22;5036056;28;20117;-67
2020/12/22 00:49:37;;;;;;;7.38;4.78;;;;;;;14.83;61.21;100262.16;5036486;28;20052;-67
2020/12/22 00:52:02;;;;;;;6.55;3.58;;;;;;;14.91;61.58;100270.53;5036780;28;20029;-67
2020/12/22 00:54:28;;;;;;;7.38;4.50;;;;;;;15.26;59.80;100264.81;5035892;28;20038;-67
2020/12/22 00:56:54;;;;;;;5.90;3.90;;;;;;;14.56;62.52;100265.78;5050092;28;20022;-67
2020/12/22 00:59:32;;;;;;;5.65;3.17;;;;;;;14.33;62.97;100268.31;5027353;28;20159;-68
2020/12/22 01:02:06;;;;;;;5.32;3.08;;;;;;;14.52;63.31;100262.44;5036530;28;20033;-67
2020/12/22 01:04:32;;;;;;;5.72;3.38;;;;;;;14.58;62.86;100262.25;5036418;28;20110;-67
2020/12/22 01:06:57;;;;;;;7.00;3.47;;;;;;;15.02;61.23;100257.06;5038476;28;20037;-67
2020/12/22 01:09:23;;;;;;;5.57;3.22;;;;;;;14.98;61.44;100250.31;5034536;28;20136;-68
2020/12/22 01:11:48;;;;;;;4.30;2.65;;;;;;;15.03;61.12;100247.53;5048547;28;20037;-67
2020/12/22 01:14:14;;;;;;;5.60;3.28;;;;;;;14.92;61.99;100250.53;5033585;28;20116;-68
2020/12/22 01:16:39;;;;;;;5.35;2.95;;;;;;;14.94;61.54;100243.53;5047456;28;20033;-67
2020/12/22 01:19:05;;;;;;;5.00;2.78;;;;;;;15.10;61.29;100238.56;5035899;28;20051;-67
2020/12/22 01:21:30;;;;;;;5.72;3.40;;;;;;;14.63;63.30;100239.50;5029203;28;20036;-67
2020/12/22 01:23:56;;;;;;;5.57;3.38;;;;;;;14.91;62.19;100243.63;5039120;28;20033;-67
2020/12/22 01:26:23;;;;;;;4.53;2.72;;;;;;;15.12;61.68;100241.97;5025358;28;20056;-67
2020/12/22 01:28:49;;;;;;;4.78;2.75;;;;;;;14.73;63.27;100235.66;5041208;28;20028;-67
2020/12/22 01:31:29;;;;;;;5.47;3.35;;;;;;;15.04;61.87;100238.81;5033392;28;20702;-67
2020/12/22 01:33:56;;;;;;;4.95;2.90;;;;;;;14.95;62.20;100233.03;5037031;28;20044;-67
2020/12/22 01:36:22;;;;;;;5.38;3.13;;;;;;;15.40;61.18;100228.66;5034206;28;20045;-66
2020/12/22 01:38:48;;;;;;;4.30;2.58;;;;;;;14.89;62.74;100229.81;5038757;28;20063;-67
2020/12/22 01:41:14;;;;;;;4.00;2.55;;;;;;;14.59;63.90;100222.31;5034007;28;20029;-66
2020/12/22 01:43:40;;;;;;;2.85;1.77;;;;;;;15.40;61.56;100215.63;5042023;28;20048;-68
2020/12/22 01:46:06;;;;;;;4.57;2.42;;;;;;;14.73;63.48;100225.25;5038915;28;20422;-66
2020/12/22 01:48:32;;;;;;;3.42;2.42;;;;;;;14.51;64.88;100216.50;5040878;28;20051;-66
2020/12/22 01:50:58;;;;;;;4.05;2.72;;;;;;;14.87;63.81;100216.91;5046088;28;20045;-67
2020/12/22 01:53:24;;;;;;;3.53;1.95;;;;;;;14.66;64.37;100213.34;5041886;28;20386;-66
2020/12/22 01:55:49;;;;;;;4.75;2.47;;;;;;;14.94;64.44;100201.91;5040077;28;20135;-67
2020/12/22 01:58:15;;;;;;;4.40;2.25;;;;;;;15.43;62.44;100205.09;5038802;28;20574;-66
2020/12/22 02:00:41;;;;;;;3.53;1.88;;;;;;;15.20;63.50;100208.63;5038932;28;20257;-67
2020/12/22 02:03:08;;;;;;;4.30;1.98;;;;;;;14.82;64.70;100204.97;5038848;28;20108;-67
2020/12/22 02:05:35;;;;;;;3.05;2.17;;;;;;;15.33;63.01;100195.97;5038706;28;20044;-67
2020/12/22 02:08:01;;;;;;;3.28;1.88;;;;;;;14.44;65.78;100196.84;5043246;28;20036;-67
2020/12/22 02:10:26;;;;;;;3.45;2.22;;;;;;;14.95;64.45;100194.00;5043886;28;20469;-67
2020/12/22 02:12:52;;;;;;;2.83;1.83;;;;;;;15.29;63.85;100186.59;5041272;28;20127;-67
2020/12/22 02:15:17;;;;;;;2.88;1.85;;;;;;;15.51;63.31;100176.97;5044242;28;20029;-67
2020/12/22 02:17:45;;;;;;;2.80;1.85;;;;;;;14.71;65.71;100184.56;5036942;28;22383;-67
2020/12/22 02:20:11;;;;;;;2.53;1.52;;;;;;;15.22;64.44;100174.75;5040570;28;20029;-67
2020/12/22 02:22:37;;;;;;;2.58;1.33;;;;;;;15.38;63.57;100175.78;5029941;28;20044;-67
2020/12/22 02:25:05;;;;;;;2.58;1.35;;;;;;;15.20;64.54;100176.56;5037424;28;20029;-66
2020/12/22 02:27:36;;;;;;;2.75;1.40;;;;;;;15.59;62.87;100183.63;5038681;28;20140;-67
2020/12/22 02:30:03;;;;;;;1.85;0.93;;;;;;;15.36;64.06;100175.88;5039516;28;20132;-68
2020/12/22 02:32:29;;;;;;;2.42;1.08;;;;;;;15.59;63.24;100175.81;5037006;28;20052;-67
2020/12/22 02:34:54;;;;;;;2.30;1.40;;;;;;;15.10;65.27;100165.69;5039837;28;20029;-67
2020/12/22 02:37:21;;;;;;;2.60;1.23;;;;;;;14.39;67.56;100175.38;5039791;28;20044;-67
2020/12/22 02:39:47;;;;;;;2.13;1.40;;;;;;;15.59;63.79;100168.00;5036858;28;20033;-69
2020/12/22 02:42:13;;;;;;;2.30;1.33;;;;;;;15.00;65.61;100173.00;5038445;28;20033;-67
2020/12/22 02:44:38;;;;;;;2.78;1.00;;;;;;;15.81;62.83;100167.91;5037920;28;20038;-68
2020/12/22 02:47:11;;;;;;;2.35;1.25;;;;;;;15.36;64.54;100167.22;5044204;28;20044;-68
2020/12/22 02:49:36;;;;;;;2.05;1.10;;;;;;;15.24;64.35;100173.75;5039143;28;20041;-67
2020/12/22 02:52:01;;;;;;;2.38;1.23;;;;;;;15.19;65.49;100159.25;5037224;28;20224;-68
2020/12/22 02:54:27;;;;;;;2.47;1.38;;;;;;;15.78;63.25;100161.09;5041213;28;20430;-68
2020/12/22 02:56:52;;;;;;;2.15;1.17;;;;;;;15.84;63.23;100163.44;5050507;28;20033;-67
2020/12/22 02:59:18;;;;;;;1.42;0.80;;;;;;;15.35;65.27;100157.69;5038101;28;20045;-67
2020/12/22 03:01:43;;;;;;;1.55;0.80;;;;;;;15.13;65.48;100155.97;5037084;28;20045;-67
2020/12/22 03:04:09;;;;;;;1.35;0.57;;;;;;;15.29;65.40;100151.00;5037589;28;20045;-69
2020/12/22 03:06:34;;;;;;;1.60;0.50;;;;;;;14.90;67.22;100163.88;5039244;28;20036;-67
2020/12/22 03:09:00;;;;;;;2.30;0.68;;;;;;;14.60;68.09;100155.53;5037324;28;20398;-67
2020/12/22 03:11:25;;;;;;;1.90;0.98;;;;;;;15.67;64.05;100142.44;5043217;28;20123;-67
2020/12/22 03:13:50;;;;;;;1.40;0.50;;;;;;;15.37;65.43;100140.25;5037974;28;20033;-66
2020/12/22 03:16:19;;;;;;;1.55;0.57;;;;;;;15.94;63.93;100133.44;5039740;28;20117;-66
2020/12/22 03:18:44;;;;;;;1.20;0.40;;;;;;;15.44;64.82;100133.88;5039474;28;20060;-68
2020/12/22 03:21:10;;;;;;;3.42;0.68;;;;;;;15.62;64.76;100136.59;5039115;28;20041;-68
2020/12/22 03:23:35;;;;;;;1.65;0.68;;;;;;;15.93;63.67;100136.13;5052570;28;20040;-68
2020/12/22 03:26:01;;;;;;;1.00;0.35;;;;;;;15.53;65.46;100128.25;5040418;28;20033;-66
2020/12/22 03:28:26;;;;;;;1.02;0.30;;;;;;;15.92;64.09;100131.84;5038625;28;20048;-67
2020/12/22 03:30:52;;;;;;;2.15;0.55;;;;;;;15.75;64.53;100135.19;5034585;28;20037;-67
2020/12/22 03:33:17;;;;;;;1.13;0.30;;;;;;;15.66;64.94;100127.75;5039038;28;20033;-67
2020/12/22 03:35:43;;;;;;;4.82;0.50;;;;;;;15.41;65.53;100136.63;5040579;28;20506;-67
2020/12/22 03:38:08;;;;;;;1.25;0.30;;;;;;;15.11;66.63;100129.19;5038482;28;20024;-67
2020/12/22 03:40:34;;;;;;;0.57;0.22;;;;;;;15.81;64.54;100132.31;5041369;28;20045;-67
2020/12/22 03:42:59;;;;;;;1.92;0.65;;;;;;;15.94;64.12;100138.66;5040652;28;20613;-66
2020/12/22 03:45:25;;;;;;;3.30;0.52;;;;;;;15.40;65.75;100147.94;5022583;28;20545;-66
2020/12/22 03:47:50;;;;;;;2.08;0.80;;;;;;;15.67;65.44;100134.63;5034614;28;20109;-67
2020/12/22 03:50:15;;;;;;;1.67;0.77;;;;;;;15.68;65.27;100141.53;5035567;28;20446;-67
2020/12/22 03:52:41;;;;;;;0.90;0.20;;;;;;;15.51;65.97;100135.28;5035471;28;20102;-67
2020/12/22 03:55:07;;;;;;;1.02;0.32;;;;;;;15.80;65.14;100141.03;5037218;28;20036;-66
2020/12/22 03:57:32;;;;;;;1.77;0.50;;;;;;;15.19;67.13;100130.63;5032942;28;20037;-67
2020/12/22 03:59:57;;;;;;;0.73;0.30;;;;;;;15.69;65.34;100127.59;5036297;28;20398;-68
2020/12/22 04:02:23;;;;;;;1.10;0.40;;;;;;;15.27;67.00;100125.91;5022840;28;20041;-66
2020/12/22 04:04:49;;;;;;;1.05;0.40;;;;;;;15.68;65.63;100136.34;5034912;28;20080;-68
2020/12/22 04:07:14;;;;;;;1.92;0.57;;;;;;;15.62;66.15;100132.22;5035997;28;20068;-67
2020/12/22 04:09:40;;;;;;;1.00;0.40;;;;;;;15.47;66.59;100131.16;5042795;28;20067;-67
2020/12/22 04:12:05;;;;;;;7.55;0.60;;;;;;;15.98;64.54;100129.81;5043948;28;20045;-67
2020/12/22 04:14:31;;;;;;;1.98;0.70;;;;;;;15.73;65.70;100137.84;5039548;28;20042;-66
2020/12/22 04:16:56;;;;;;;1.35;0.40;;;;;;;15.79;65.22;100131.53;5039205;28;20108;-66
2020/12/22 04:19:22;;;;;;;0.90;0.25;;;;;;;15.62;65.94;100136.59;5035442;28;20124;-67
2020/12/22 04:21:47;;;;;;;1.05;0.40;;;;;;;15.45;67.00;100138.19;5038441;28;20055;-68
2020/12/22 04:24:13;;;;;;;1.38;0.60;;;;;;;15.98;65.14;100142.84;5038095;28;20041;-66
2020/12/22 04:26:38;;;;;;;2.05;0.85;;;;;;;16.13;64.41;100148.25;5034813;28;20041;-67
2020/12/22 04:29:04;;;;;;;1.13;0.38;;;;;;;15.66;66.31;100146.81;5036637;28;20029;-67
2020/12/22 04:31:30;;;;;;;1.55;0.52;;;;;;;15.88;65.27;100133.72;5038599;28;20037;-67
2020/12/22 04:33:57;;;;;;;1.77;0.65;;;;;;;16.28;64.42;100157.97;5041729;28;20039;-66
2020/12/22 04:36:24;;;;;;;1.58;0.65;;;;;;;15.20;67.47;100151.38;5036681;28;20045;-67
2020/12/22 04:38:50;;;;;;;0.73;0.30;;;;;;;15.60;67.43;100159.25;5039671;28;20032;-67
2020/12/22 04:41:18;;;;;;;2.78;0.40;;;;;;;16.16;65.12;100168.97;5038314;28;20037;-67
2020/12/22 04:43:45;;;;;;;0.63;0.10;;;;;;;16.31;64.17;100165.66;5036984;28;20044;-67
2020/12/22 04:46:15;;;;;;;0.50;0.10;;;;;;;16.27;64.57;100174.53;5036192;28;20029;-67
2020/12/22 04:48:41;;;;;;;0.50;0.20;;;;;;;16.02;65.03;100181.78;5049397;28;20657;-68
2020/12/22 04:51:08;;;;;;;1.35;0.22;;;;;;;15.72;66.27;100184.81;5035815;28;20071;-66
2020/12/22 04:53:34;;;;;;;0.70;0.20;;;;;;;15.72;66.45;100184.81;5038191;28;20037;-67
2020/12/22 04:56:05;;;;;;;0.57;0.20;;;;;;;15.66;65.97;100179.84;5039993;28;20110;-67
2020/12/22 04:58:31;;;;;;;1.03;0.20;;;;;;;15.47;67.13;100196.25;5039537;28;20041;-68
2020/12/22 05:00:57;;;;;;;2.00;0.30;;;;;;;15.76;66.08;100207.19;5035815;28;20290;-66
2020/12/22 05:03:23;;;;;;;1.20;0.38;;;;;;;15.76;65.78;100199.38;5036657;28;20075;-67
2020/12/22 05:05:49;;;;;;;1.70;0.60;;;;;;;16.33;64.21;100192.50;5036516;28;20040;-66
2020/12/22 05:08:16;;;;;;;1.55;0.50;;;;;;;16.15;64.77;100196.81;5037064;28;20503;-67
2020/12/22 05:10:43;;;;;;;1.30;0.45;;;;;;;15.82;65.54;100198.28;5053058;28;20045;-67
2020/12/22 05:13:10;;;;;;;1.33;0.88;;;;;;;16.15;65.00;100202.00;5037608;28;20033;-68
2020/12/22 05:15:35;;;;;;;1.30;0.50;;;;;;;16.06;64.96;100198.97;5035281;28;20482;-66
2020/12/22 05:18:02;;;;;;;3.20;0.70;;;;;;;16.16;64.87;100200.25;5035019;28;20044;-66
2020/12/22 05:20:28;;;;;;;1.77;0.80;;;;;;;16.33;63.99;100200.34;5038699;28;20036;-67
2020/12/22 05:22:54;;;;;;;2.00;0.50;;;;;;;16.19;64.84;100205.34;5043723;28;20425;-66
2020/12/22 05:25:20;;;;;;;5.03;0.80;;;;;;;16.41;63.96;100202.63;5040856;28;20086;-68
2020/12/22 05:27:49;;;;;;;1.65;0.60;;;;;;;16.27;64.08;100207.59;5060621;28;20056;-66
2020/12/22 05:30:20;;;;;;;2.25;0.85;;;;;;;16.55;63.61;100207.19;5056335;28;20044;-66
2020/12/22 05:32:50;;;;;;;1.52;0.70;;;;;;;16.09;65.16;100207.50;5039033;28;20049;-68
2020/12/22 05:35:19;;;;;;;3.67;0.73;;;;;;;15.97;65.49;100216.72;5041516;28;20486;-67
2020/12/22 05:37:50;;;;;;;4.40;1.40;;;;;;;16.05;65.36;100205.94;5042052;28;20139;-67
2020/12/22 05:40:15;;;;;;;4.10;1.17;;;;;;;16.26;64.82;100211.97;5042999;28;20383;-66
2020/12/22 05:42:42;;;;;;;3.20;0.88;;;;;;;16.57;63.37;100221.00;5039103;28;20048;-67
2020/12/22 05:45:09;;;;;;;1.98;1.10;;;;;;;16.59;63.32;100216.56;5037519;28;20290;-67
2020/12/22 05:47:34;;;;;;;4.50;0.93;;;;;;;16.01;65.10;100221.78;5044306;28;20041;-67
2020/12/22 05:50:01;;;;;;;3.42;0.90;;;;;;;16.34;64.34;100225.50;5034693;28;20036;-67
2020/12/22 05:52:28;;;;;;;3.22;0.80;;;;;;;16.91;62.25;100224.69;5040158;28;20037;-67
2020/12/22 05:54:56;;;;;;;2.40;0.65;;;;;;;16.59;63.79;100220.00;5028884;28;20030;-67
2020/12/22 05:57:24;;;;;;;3.03;0.68;;;;;;;16.85;62.54;100232.78;5038180;28;20045;-67
2020/12/22 05:59:50;;;;;;;3.08;0.77;;;;;;;16.63;63.40;100228.53;5056112;28;20067;-67
2020/12/22 06:02:29;;;;;;;1.48;0.60;;;;;;;16.65;63.66;100234.53;5037473;28;20033;-67
2020/12/22 06:04:58;;;;;;;4.53;0.45;;;;;;;16.77;63.09;100233.97;5044266;28;20037;-68
2020/12/22 06:07:26;;;;;;;1.58;0.63;;;;;;;16.76;63.18;100240.09;5039540;28;20037;-67
2020/12/22 06:09:53;;;;;;;2.50;0.20;;;;;;;16.79;63.00;100241.75;5052238;28;20045;-67
2020/12/22 06:12:20;;;;;;;1.27;0.30;;;;;;;16.66;62.97;100230.19;5037406;28;20555;-66
2020/12/22 06:14:48;;;;;;;1.27;0.30;;;;;;;16.93;62.23;100248.94;5052586;28;20086;-67
2020/12/22 06:17:14;;;;;;;1.13;0.20;;;;;;;16.43;63.90;100246.88;5036284;28;20626;-67
2020/12/22 06:19:41;;;;;;;0.82;0.20;;;;;;;16.45;64.43;100252.84;5039877;28;20033;-67
2020/12/22 06:22:14;;;;;;;1.70;0.20;;;;;;;16.31;64.38;100250.88;5043468;28;20028;-67
2020/12/22 06:24:41;;;;;;;2.05;0.20;;;;;;;17.07;62.29;100253.50;5039349;28;20037;-67
2020/12/22 06:27:09;;;;;;;1.30;0.35;;;;;;;16.43;64.58;100265.13;5038426;28;20426;-67
2020/12/22 06:29:36;;;;;;;2.25;0.20;;;;;;;16.46;63.78;100262.41;5035760;28;20052;-67
2020/12/22 06:32:16;;;;;;;2.08;0.30;;;;;;;16.27;64.95;100273.63;5041790;28;20453;-67
2020/12/22 06:34:43;;;;;;;1.75;0.40;;;;;;;16.53;64.21;100276.84;5037826;28;20398;-67
2020/12/22 06:37:10;;;;;;;2.58;0.82;;;;;;;16.22;65.08;100277.38;5037133;28;20068;-67
2020/12/22 06:39:53;;;;;;;1.45;0.40;;;;;;;16.29;64.75;100284.84;5043262;28;20062;-66
2020/12/22 06:42:28;;;;;;;1.10;0.43;;;;;;;16.47;64.34;100284.94;5029273;28;20072;-68
2020/12/22 06:44:54;;;;;;;2.17;0.43;;;;;;;16.65;63.49;100289.31;5040346;28;20072;-67
2020/12/22 06:47:34;;;;;;;5.97;1.10;;;;;;;16.21;65.29;100292.16;5040453;28;20065;-67
2020/12/22 06:49:59;;;;;;;5.32;0.70;;;;;;;16.58;63.94;100295.75;5041600;28;20049;-67
2020/12/22 06:52:35;;;;;;;5.72;1.15;;;;;;;16.78;63.41;100302.66;5036760;28;20586;-67
2020/12/22 06:55:06;;;;;;;4.85;0.75;;;;;;;16.64;63.67;100305.06;5039530;28;20025;-66
2020/12/22 06:57:50;;;;;;;7.22;0.68;;;;;;;16.79;62.99;100304.38;5036573;28;20037;-66
2020/12/22 07:00:25;;;;;;;1.65;0.70;;;;;;;16.57;63.92;100309.72;5036149;28;20033;-67
2020/12/22 07:02:51;;;;;;;2.05;0.52;;;;;;;16.80;63.06;100309.53;5038086;28;20033;-68
2020/12/22 07:05:39;;;;;;;3.75;1.13;;;;;;;16.92;62.97;100309.88;5036689;28;20105;-67
2020/12/22 07:08:06;;;;;;;1.30;0.30;;;;;;;16.96;62.14;100321.88;5039042;28;20059;-67
2020/12/22 07:10:36;;;;;;;2.25;0.73;;;;;;;17.05;62.00;100321.44;5044336;28;20033;-67
2020/12/22 07:13:06;;;;;;;1.85;0.40;;;;;;;17.09;61.98;100320.41;5040506;28;20075;-67
2020/12/22 07:15:33;;;;;;;1.13;0.20;;;;;;;16.76;62.95;100326.22;5016082;28;20128;-68
2020/12/22 07:18:11;;;;;;;0.73;0.10;;;;;;;16.66;63.49;100324.94;5040344;28;20534;-67
2020/12/22 07:20:40;;;;;;;3.00;0.20;;;;;;;17.32;61.53;100324.53;5036837;28;20642;-68
2020/12/22 07:23:07;;;;;;;1.05;0.20;;;;;;;17.13;61.86;100335.00;5037500;28;20033;-67
2020/12/22 07:25:33;;;;;;;0.47;0.10;;;;;;;17.15;61.63;100333.19;5053791;28;20065;-68
2020/12/22 07:28:01;;;;;;;1.40;0.20;;;;;;;17.13;61.63;100339.41;5040853;28;20048;-68
2020/12/22 07:30:27;;;;;;;0.52;0.20;;;;;;;17.53;60.33;100333.13;5036420;28;20111;-67
2020/12/22 07:32:52;;;;;;;0.20;0.10;;;;;;;17.07;61.91;100355.34;5041405;28;20132;-67
2020/12/22 07:35:18;;;;;;;1.48;0.10;;;;;;;17.37;61.00;100355.66;5042912;28;20033;-67
2020/12/22 07:37:44;;;;;;;1.05;0.10;;;;;;;17.28;61.21;100354.34;5038802;28;20540;-67
2020/12/22 07:40:10;;;;;;;0.75;0.00;;;;;;;17.47;60.85;100356.91;5036867;28;20036;-67
2020/12/22 07:42:35;;;;;;;1.00;0.10;;;;;;;17.50;60.69;100363.75;5038773;28;20045;-67
2020/12/22 07:45:06;;;;;;;0.77;0.10;;;;;;;17.56;60.16;100373.94;5037222;28;20048;-66
2020/12/22 07:47:32;;;;;;;1.63;0.20;;;;;;;17.54;60.19;100376.59;5041579;28;20216;-67
2020/12/22 07:50:11;;;;;;;1.30;0.20;;;;;;;17.03;61.51;100378.13;5037001;28;20479;-67
2020/12/22 07:52:36;;;;;;;0.20;0.10;;;;;;;16.83;61.53;100380.78;5039021;28;20029;-67
2020/12/22 07:55:02;;;;;;;0.50;0.20;;;;;;;16.68;61.81;100385.75;5036935;28;20068;-67
2020/12/22 07:57:29;;;;;;;1.30;0.20;;;;;;;16.82;61.22;100392.16;5038109;28;20111;-69
2020/12/22 08:00:04;;;;;;;0.93;0.30;;;;;;;16.67;61.45;100384.03;5035750;28;20048;-67
2020/12/22 08:02:30;;;;;;;1.25;0.10;;;;;;;16.68;61.48;100380.53;5040995;28;20553;-67
2020/12/22 08:04:55;;;;;;;0.43;0.10;;;;;;;16.00;63.09;100389.53;5035347;28;20052;-67
2020/12/22 08:07:21;;;;;;;1.13;0.10;;;;;;;16.70;61.32;100402.19;5037751;28;20056;-67
2020/12/22 08:09:46;;;;;;;1.95;0.10;;;;;;;16.28;61.67;100403.13;5035696;28;20029;-67
2020/12/22 08:12:12;;;;;;;0.30;0.10;;;;;;;16.33;62.43;100411.59;5040751;28;20033;-68
2020/12/22 08:14:45;;;;;;;3.20;0.10;;;;;;;15.93;63.29;100402.81;5053937;28;20474;-67
2020/12/22 08:17:18;;;;;;;0.75;0.10;;;;;;;16.53;61.73;100410.75;5037825;28;20033;-67
2020/12/22 08:19:45;;;;;;;2.83;0.10;;;;;;;16.25;62.30;100411.03;5033213;28;20130;-67
2020/12/22 08:22:18;;;;;;;0.82;0.03;;;;;;;15.97;63.03;100420.03;5039232;28;20041;-67
2020/12/22 08:24:44;;;;;;;1.48;0.10;;;;;;;16.04;62.61;100425.84;5047789;28;20056;-67
2020/12/22 08:27:11;;;;;;;1.88;0.28;;;;;;;15.57;64.11;100434.59;5038060;28;20119;-67
2020/12/22 08:29:38;;;;;;;0.30;0.10;;;;;;;15.55;64.18;100439.00;5035307;28;20047;-68
2020/12/22 08:32:05;;;;;;;0.50;0.10;;;;;;;15.62;63.83;100450.03;5041125;28;20555;-67
2020/12/22 08:34:31;;;;;;;0.73;0.20;;;;;;;16.05;62.61;100457.94;5035361;28;20052;-68
2020/12/22 08:36:57;;;;;;;0.30;0.10;;;;;;;16.35;61.84;100464.53;5035291;28;20037;-66
2020/12/22 08:39:27;;;;;;;2.15;0.30;;;;;;;16.43;61.53;100468.56;5037984;28;20071;-68
2020/12/22 08:41:55;;;;;;;2.70;1.25;;;;;;;16.22;61.99;100476.38;5031924;28;20050;-67
2020/12/22 08:44:22;;;;;;;2.25;0.85;;;;;;;16.50;60.95;100480.44;5041906;28;20033;-66
2020/12/22 08:46:49;;;;;;;2.45;0.40;;;;;;;16.57;60.17;100482.75;5033688;28;20030;-67
2020/12/22 08:49:20;;;;;;;0.80;0.30;;;;;;;16.21;61.23;100492.94;5036478;28;20574;-67
2020/12/22 08:51:47;;;;;;;0.55;0.20;;;;;;;15.51;62.99;100499.09;5020876;28;20049;-65
2020/12/22 08:54:13;;;;;;;0.65;0.30;;;;;;;15.61;62.11;100499.63;5035703;28;20079;-67
2020/12/22 08:56:39;;;;;;;1.35;0.60;;;;;;;15.89;60.96;100510.69;5038148;28;20074;-68
2020/12/22 08:59:10;;;;;;;3.47;0.60;;;;;;;15.98;60.94;100519.91;5023968;28;20017;-67
2020/12/22 09:01:45;;;;;;;0.80;0.40;;;;;;;15.82;60.88;100530.09;5035148;28;20387;-67
2020/12/22 09:04:12;;;;;;;1.20;0.50;;;;;;;15.92;60.72;100541.03;5036419;28;20096;-67
2020/12/22 09:06:40;;;;;;;2.30;0.82;;;;;;;15.87;60.01;100543.78;5038797;28;20084;-67
2020/12/22 09:09:09;;;;;;;1.60;0.63;;;;;;;15.46;60.98;100553.97;5054455;28;20049;-67
2020/12/22 09:11:36;;;;;;;1.02;0.50;;;;;;;15.66;60.09;100565.41;5049524;28;20044;-67
2020/12/22 09:14:05;;;;;;;5.82;0.98;;;;;;;15.31;60.68;100567.53;5036421;28;20044;-66
2020/12/22 09:16:49;;;;;;;2.78;1.38;;;;;;;15.07;61.12;100577.91;5016570;28;20045;-66
2020/12/22 09:19:17;;;;;;;1.55;0.75;;;;;;;15.48;60.04;100578.19;5059052;28;20079;-66
2020/12/22 09:21:42;;;;;;;1.70;0.80;;;;;;;15.38;60.03;100584.63;5041236;28;20045;-66
2020/12/22 09:24:14;;;;;;;4.38;1.20;;;;;;;15.18;60.68;100594.91;5037809;28;20043;-66
2020/12/22 09:26:51;;;;;;;7.57;1.35;;;;;;;14.92;61.17;100604.44;5034337;28;20105;-66
2020/12/22 09:29:17;;;;;;;3.08;1.35;;;;;;;15.30;60.10;100605.75;5038301;28;20052;-67
2020/12/22 09:31:42;;;;;;;3.95;1.45;;;;;;;15.60;59.02;100608.16;5035563;28;20741;-66
2020/12/22 09:34:08;;;;;;;5.05;2.25;;;;;;;15.75;58.35;100612.00;5034482;28;20450;-67
2020/12/22 09:36:33;;;;;;;7.05;2.38;;;;;;;15.53;59.26;100623.16;5040180;28;20076;-66
2020/12/22 09:38:59;;;;;;;4.88;2.30;;;;;;;15.09;60.20;100632.50;5038927;28;20040;-68
2020/12/22 09:41:24;;;;;;;9.82;2.55;;;;;;;15.01;60.61;100652.75;5033987;28;20036;-66
2020/12/22 09:43:49;;;;;;;10.43;3.22;;;;;;;15.23;59.66;100665.91;5038069;28;20032;-66
2020/12/22 09:46:16;;;;;;;9.85;2.38;;;;;;;14.99;59.93;100673.59;5039054;28;20061;-68
2020/12/22 09:48:42;;;;;;;11.80;3.05;;;;;;;15.38;58.80;100686.19;5050062;28;20053;-68
2020/12/22 09:51:14;;;;;;;9.27;2.28;;;;;;;15.10;59.09;100688.88;5034339;28;20036;-68
2020/12/22 09:53:39;;;;;;;5.53;1.88;;;;;;;15.07;59.38;100702.84;5036861;28;20041;-66
2020/12/22 09:56:05;;;;;;;6.18;2.53;;;;;;;14.80;59.50;100701.97;5034100;28;20083;-69
2020/12/22 09:58:30;;;;;;;7.75;1.10;;;;;;;15.18;58.75;100717.25;5040182;28;20038;-65
2020/12/22 10:00:56;;;;;;;5.20;1.10;;;;;;;14.99;58.40;100720.47;5049165;28;20056;-67
2020/12/22 10:03:21;;;;;;;7.47;1.08;;;;;;;14.78;59.17;100722.00;5039382;28;20185;-67
2020/12/22 10:08:15;;;;;;;11.60;1.13;;;;;;;15.13;57.96;100743.44;5012465;28;20053;-70
2020/12/22 10:10:41;;;;;;;6.22;1.15;;;;;;;14.68;59.17;100750.00;5012322;28;20116;-70
2020/12/22 10:13:07;;;;;;;4.53;0.90;;;;;;;14.92;58.65;100756.22;5032400;28;20487;-69
2020/12/22 10:15:32;;;;;;;4.13;0.90;;;;;;;15.20;57.89;100757.09;5016046;28;20042;-70
2020/12/22 10:17:57;;;;;;;6.85;1.17;;;;;;;14.69;58.71;100775.16;5007815;28;20034;-70
2020/12/22 10:20:23;;;;;;;7.88;1.33;;;;;;;14.95;58.51;100781.31;5010718;28;20063;-69
2020/12/22 10:22:48;;;;;;;10.68;1.15;;;;;;;15.15;58.00;100778.94;5008112;28;20093;-70
2020/12/22 10:25:14;;;;;;;5.70;0.75;;;;;;;14.99;58.19;100787.28;5014302;28;20041;-72
2020/12/22 10:27:40;;;;;;;5.80;0.82;;;;;;;14.99;58.21;100787.28;5008062;28;20198;-71
2020/12/22 10:30:08;;;;;;;4.97;0.70;;;;;;;14.98;58.58;100786.44;5025444;28;20045;-70
2020/12/22 10:32:34;;;;;;;7.15;1.35;;;;;;;15.52;56.99;100782.97;5008455;28;20774;-70
2020/12/22 10:35:01;;;;;;;5.60;0.80;;;;;;;15.73;55.56;100788.41;5025363;28;20061;-71
2020/12/22 10:37:26;;;;;;;13.65;1.05;;;;;;;15.46;56.84;100788.38;5009723;28;20112;-69
2020/12/22 10:39:52;;;;;;;7.63;0.95;;;;;;;14.99;57.44;100788.13;5022036;28;20099;-69
2020/12/22 10:42:18;;;;;;;6.63;0.50;;;;;;;15.43;57.00;100788.50;5015096;28;20483;-69
2020/12/22 10:44:44;;;;;;;3.33;0.40;;;;;;;15.52;56.57;100792.56;5007305;28;20042;-69
2020/12/22 10:47:10;;;;;;;7.45;0.60;;;;;;;15.84;55.75;100799.31;5009859;28;20588;-69
2020/12/22 10:49:35;;;;;;;2.00;0.65;;;;;;;15.79;55.82;100795.19;5025504;28;20038;-69
2020/12/22 10:52:02;;;;;;;7.00;0.90;;;;;;;15.36;57.29;100807.81;5023996;28;20032;-69
2020/12/22 10:54:27;;;;;;;7.60;0.57;;;;;;;15.74;56.74;100808.38;5025223;28;20479;-69
2020/12/22 10:56:53;;;;;;;9.48;0.93;;;;;;;15.37;57.28;100814.72;4987455;28;20040;-70
2020/12/22 10:59:19;;;;;;;10.23;1.10;;;;;;;15.41;56.88;100821.53;5029540;28;20033;-72
2020/12/22 11:01:47;;;;;;;3.92;0.82;;;;;;;15.49;57.19;100823.88;5000871;28;20031;-69
2020/12/22 11:04:13;;;;;;;9.50;0.98;;;;;;;15.09;58.71;100833.81;5007924;28;20044;-71
2020/12/22 11:09:07;;;;;;;7.55;0.85;;;;;;;15.32;58.04;100858.28;5011582;28;20051;-70
2020/12/22 11:11:33;;;;;;;2.65;0.57;;;;;;;14.77;59.85;100865.13;5004523;28;20446;-70
2020/12/22 11:13:58;;;;;;;3.47;0.43;;;;;;;14.44;60.26;100867.72;5026742;28;20029;-70
2020/12/22 11:16:27;;;;;;;6.32;0.65;;;;;;;14.79;59.10;100876.34;5007445;28;20051;-69
2020/12/22 11:18:53;;;;;;;3.10;0.55;;;;;;;14.88;58.83;100884.72;5009970;28;20029;-70
2020/12/22 11:21:20;;;;;;;11.25;0.30;;;;;;;14.95;58.48;100895.81;5013487;28;20045;-70
2020/12/22 11:23:46;;;;;;;6.22;0.38;;;;;;;15.03;58.33;100901.66;5004396;28;20243;-70
2020/12/22 11:26:19;;;;;;;3.00;0.20;;;;;;;14.95;58.19;100916.63;5013868;28;20549;-70
2020/12/22 11:28:45;;;;;;;5.68;0.30;;;;;;;15.41;57.31;100912.69;5005052;28;20319;-70